sensor_id;sensor_type;location;lat;lon;timestamp;temperature;humidity
6210;DHT22;3138;52.550;13.148;2022-07-29T00:00:04;14.10;99.90
6210;DHT22;3138;52.550;13.148;2022-07-29T00:02:31;14.00;99.90
6210;DHT22;3138;52.550;13.148;2022-07-29T00:04:58;14.00;99.90
6210;DHT22;3138;52.550;13.148;2022-07-29T00:07:25;14.00;99.90
6210;DHT22;3138;52.550;13.148;2022-07-29T00:09:52;14.00;99.90
6210;DHT22;3138;52.550;13.148;2022-07-29T00:12:22;14.00;99.90
6210;DHT22;3138;52.550;13.148;2022-07-29T00:14:52;14.00;99.90
6210;DHT22;3138;52.550;13.148;2022-07-29T00:17:19;13.90;99.90
6210;DHT22;3138;52.550;13.148;2022-07-29T00:19:45;13.90;99.90
6210;DHT22;3138;52.550;13.148;2022-07-29T00:22:12;13.90;99.90
6210;DHT22;3138;52.550;13.148;2022-07-29T00:24:39;13.90;99.90
6210;DHT22;3138;52.550;13.148;2022-07-29T00:27:06;13.80;99.90
6210;DHT22;3138;52.550;13.148;2022-07-29T00:29:34;13.90;99.90
6210;DHT22;3138;52.550;13.148;2022-07-29T00:32:01;14.00;99.90
6210;DHT22;3138;52.550;13.148;2022-07-29T00:34:27;14.00;99.90
6210;DHT22;3138;52.550;13.148;2022-07-29T00:37:11;13.90;99.90
6210;DHT22;3138;52.550;13.148;2022-07-29T00:39:38;13.90;99.90
6210;DHT22;3138;52.550;13.148;2022-07-29T00:42:05;13.80;99.90
6210;DHT22;3138;52.550;13.148;2022-07-29T00:44:39;13.90;99.90
6210;DHT22;3138;52.550;13.148;2022-07-29T00:47:08;13.90;99.90
6210;DHT22;3138;52.550;13.148;2022-07-29T00:49:35;13.80;99.90
6210;DHT22;3138;52.550;13.148;2022-07-29T00:52:02;13.80;99.90
6210;DHT22;3138;52.550;13.148;2022-07-29T00:54:29;13.70;99.90
6210;DHT22;3138;52.550;13.148;2022-07-29T00:56:57;13.80;99.90
6210;DHT22;3138;52.550;13.148;2022-07-29T00:59:25;13.70;99.90
6210;DHT22;3138;52.550;13.148;2022-07-29T01:01:53;13.80;99.90
6210;DHT22;3138;52.550;13.148;2022-07-29T01:04:21;13.70;99.90
6210;DHT22;3138;52.550;13.148;2022-07-29T01:06:48;13.70;99.90
6210;DHT22;3138;52.550;13.148;2022-07-29T01:09:16;13.70;99.90
6210;DHT22;3138;52.550;13.148;2022-07-29T01:11:44;13.70;99.90
6210;DHT22;3138;52.550;13.148;2022-07-29T01:14:13;13.70;99.90
6210;DHT22;3138;52.550;13.148;2022-07-29T01:16:46;13.70;99.90
6210;DHT22;3138;52.550;13.148;2022-07-29T01:19:30;13.70;99.90
6210;DHT22;3138;52.550;13.148;2022-07-29T01:22:07;13.70;99.90
6210;DHT22;3138;52.550;13.148;2022-07-29T01:24:48;13.60;99.90
6210;DHT22;3138;52.550;13.148;2022-07-29T01:27:32;13.70;99.90
6210;DHT22;3138;52.550;13.148;2022-07-29T01:30:06;13.60;99.90
6210;DHT22;3138;52.550;13.148;2022-07-29T01:32:36;13.60;99.90
6210;DHT22;3138;52.550;13.148;2022-07-29T01:35:06;13.60;99.90
6210;DHT22;3138;52.550;13.148;2022-07-29T01:37:39;13.50;99.90
6210;DHT22;3138;52.550;13.148;2022-07-29T01:40:14;13.50;99.90
6210;DHT22;3138;52.550;13.148;2022-07-29T01:42:48;13.50;99.90
6210;DHT22;3138;52.550;13.148;2022-07-29T01:45:21;13.60;99.90
6210;DHT22;3138;52.550;13.148;2022-07-29T01:47:56;13.50;99.90
6210;DHT22;3138;52.550;13.148;2022-07-29T01:50:30;13.60;99.90
6210;DHT22;3138;52.550;13.148;2022-07-29T01:53:02;13.60;99.90
6210;DHT22;3138;52.550;13.148;2022-07-29T01:55:34;13.60;99.90
6210;DHT22;3138;52.550;13.148;2022-07-29T01:58:03;13.60;99.90
6210;DHT22;3138;52.550;13.148;2022-07-29T02:00:32;13.50;99.90
6210;DHT22;3138;52.550;13.148;2022-07-29T02:03:03;13.50;99.90
6210;DHT22;3138;52.550;13.148;2022-07-29T02:05:32;13.40;99.90
6210;DHT22;3138;52.550;13.148;2022-07-29T02:08:02;13.50;99.90
6210;DHT22;3138;52.550;13.148;2022-07-29T02:10:33;13.40;99.90
6210;DHT22;3138;52.550;13.148;2022-07-29T02:13:02;13.40;99.90
6210;DHT22;3138;52.550;13.148;2022-07-29T02:15:32;13.40;99.90
6210;DHT22;3138;52.550;13.148;2022-07-29T02:18:03;13.20;99.90
6210;DHT22;3138;52.550;13.148;2022-07-29T02:20:31;13.20;99.90
6210;DHT22;3138;52.550;13.148;2022-07-29T02:22:59;13.20;99.90
6210;DHT22;3138;52.550;13.148;2022-07-29T02:25:27;13.20;99.90
6210;DHT22;3138;52.550;13.148;2022-07-29T02:27:55;13.20;99.90
6210;DHT22;3138;52.550;13.148;2022-07-29T02:30:24;13.10;99.90
6210;DHT22;3138;52.550;13.148;2022-07-29T02:32:53;13.00;99.90
6210;DHT22;3138;52.550;13.148;2022-07-29T02:35:21;13.00;99.90
6210;DHT22;3138;52.550;13.148;2022-07-29T02:37:48;13.00;99.90
6210;DHT22;3138;52.550;13.148;2022-07-29T02:40:31;13.00;99.90
6210;DHT22;3138;52.550;13.148;2022-07-29T02:42:58;13.10;99.90
6210;DHT22;3138;52.550;13.148;2022-07-29T02:45:25;13.20;99.90
6210;DHT22;3138;52.550;13.148;2022-07-29T02:47:55;13.20;99.90
6210;DHT22;3138;52.550;13.148;2022-07-29T02:50:31;13.20;99.90
6210;DHT22;3138;52.550;13.148;2022-07-29T02:53:02;13.20;99.90
6210;DHT22;3138;52.550;13.148;2022-07-29T02:55:34;13.30;99.90
6210;DHT22;3138;52.550;13.148;2022-07-29T02:58:05;13.30;99.90
6210;DHT22;3138;52.550;13.148;2022-07-29T03:00:38;13.30;99.90
6210;DHT22;3138;52.550;13.148;2022-07-29T03:03:11;13.40;99.90
6210;DHT22;3138;52.550;13.148;2022-07-29T03:05:39;13.40;99.90
6210;DHT22;3138;52.550;13.148;2022-07-29T03:08:08;13.30;99.90
6210;DHT22;3138;52.550;13.148;2022-07-29T03:10:36;13.40;99.90
6210;DHT22;3138;52.550;13.148;2022-07-29T03:13:05;13.40;99.90
6210;DHT22;3138;52.550;13.148;2022-07-29T03:15:32;13.40;99.90
6210;DHT22;3138;52.550;13.148;2022-07-29T03:18:00;13.40;99.90
6210;DHT22;3138;52.550;13.148;2022-07-29T03:20:28;13.30;99.90
6210;DHT22;3138;52.550;13.148;2022-07-29T03:22:55;13.40;99.90
6210;DHT22;3138;52.550;13.148;2022-07-29T03:25:22;13.40;99.90
6210;DHT22;3138;52.550;13.148;2022-07-29T03:27:48;13.30;99.90
6210;DHT22;3138;52.550;13.148;2022-07-29T03:30:16;13.40;99.90
6210;DHT22;3138;52.550;13.148;2022-07-29T03:32:42;13.30;99.90
6210;DHT22;3138;52.550;13.148;2022-07-29T03:35:09;13.30;99.90
6210;DHT22;3138;52.550;13.148;2022-07-29T03:37:37;13.20;99.90
6210;DHT22;3138;52.550;13.148;2022-07-29T03:40:07;13.20;99.90
6210;DHT22;3138;52.550;13.148;2022-07-29T03:42:37;13.20;99.90
6210;DHT22;3138;52.550;13.148;2022-07-29T03:45:07;13.20;99.90
6210;DHT22;3138;52.550;13.148;2022-07-29T03:47:36;13.20;99.90
6210;DHT22;3138;52.550;13.148;2022-07-29T03:50:06;13.20;99.90
6210;DHT22;3138;52.550;13.148;2022-07-29T03:52:34;13.20;99.90
6210;DHT22;3138;52.550;13.148;2022-07-29T03:55:04;13.20;99.90
6210;DHT22;3138;52.550;13.148;2022-07-29T03:57:32;13.30;99.90
6210;DHT22;3138;52.550;13.148;2022-07-29T04:00:02;13.30;99.90
6210;DHT22;3138;52.550;13.148;2022-07-29T04:02:30;13.30;99.90
6210;DHT22;3138;52.550;13.148;2022-07-29T04:04:58;13.30;99.90
6210;DHT22;3138;52.550;13.148;2022-07-29T04:07:25;13.30;99.90
6210;DHT22;3138;52.550;13.148;2022-07-29T04:09:51;13.30;99.90
6210;DHT22;3138;52.550;13.148;2022-07-29T04:12:19;13.40;99.90
6210;DHT22;3138;52.550;13.148;2022-07-29T04:14:47;13.30;99.90
6210;DHT22;3138;52.550;13.148;2022-07-29T04:17:15;13.40;99.90
6210;DHT22;3138;52.550;13.148;2022-07-29T04:19:42;13.40;99.90
6210;DHT22;3138;52.550;13.148;2022-07-29T04:22:09;13.40;99.90
6210;DHT22;3138;52.550;13.148;2022-07-29T04:24:35;13.50;99.90
6210;DHT22;3138;52.550;13.148;2022-07-29T04:27:02;13.50;99.90
6210;DHT22;3138;52.550;13.148;2022-07-29T04:29:30;13.60;99.90
6210;DHT22;3138;52.550;13.148;2022-07-29T04:31:57;13.60;99.90
6210;DHT22;3138;52.550;13.148;2022-07-29T04:34:24;13.70;99.90
6210;DHT22;3138;52.550;13.148;2022-07-29T04:36:50;13.70;99.90
6210;DHT22;3138;52.550;13.148;2022-07-29T04:39:17;13.80;99.90
6210;DHT22;3138;52.550;13.148;2022-07-29T04:41:44;13.90;99.90
6210;DHT22;3138;52.550;13.148;2022-07-29T04:44:11;14.00;99.90
6210;DHT22;3138;52.550;13.148;2022-07-29T04:46:39;14.10;99.90
6210;DHT22;3138;52.550;13.148;2022-07-29T04:49:06;14.20;99.90
6210;DHT22;3138;52.550;13.148;2022-07-29T04:51:33;14.30;99.90
6210;DHT22;3138;52.550;13.148;2022-07-29T04:54:00;14.40;99.90
6210;DHT22;3138;52.550;13.148;2022-07-29T04:56:27;14.60;99.90
6210;DHT22;3138;52.550;13.148;2022-07-29T04:58:53;14.80;99.90
6210;DHT22;3138;52.550;13.148;2022-07-29T05:01:20;15.20;99.90
6210;DHT22;3138;52.550;13.148;2022-07-29T05:03:48;15.40;99.90
6210;DHT22;3138;52.550;13.148;2022-07-29T05:06:15;15.50;99.90
6210;DHT22;3138;52.550;13.148;2022-07-29T05:08:42;15.90;99.90
6210;DHT22;3138;52.550;13.148;2022-07-29T05:11:09;16.00;99.90
6210;DHT22;3138;52.550;13.148;2022-07-29T05:13:35;16.00;99.90
6210;DHT22;3138;52.550;13.148;2022-07-29T05:16:02;15.90;99.90
6210;DHT22;3138;52.550;13.148;2022-07-29T05:18:29;16.00;99.90
6210;DHT22;3138;52.550;13.148;2022-07-29T05:20:57;16.30;99.90
6210;DHT22;3138;52.550;13.148;2022-07-29T05:23:24;16.10;99.90
6210;DHT22;3138;52.550;13.148;2022-07-29T05:25:51;16.20;99.90
6210;DHT22;3138;52.550;13.148;2022-07-29T05:28:17;16.10;99.90
6210;DHT22;3138;52.550;13.148;2022-07-29T05:30:44;16.10;99.90
6210;DHT22;3138;52.550;13.148;2022-07-29T05:33:11;16.00;99.90
6210;DHT22;3138;52.550;13.148;2022-07-29T05:35:38;16.10;99.90
6210;DHT22;3138;52.550;13.148;2022-07-29T05:38:06;16.20;99.90
6210;DHT22;3138;52.550;13.148;2022-07-29T05:40:32;16.10;99.90
6210;DHT22;3138;52.550;13.148;2022-07-29T05:42:59;16.10;99.90
6210;DHT22;3138;52.550;13.148;2022-07-29T05:45:26;16.20;99.90
6210;DHT22;3138;52.550;13.148;2022-07-29T05:47:53;16.20;99.90
6210;DHT22;3138;52.550;13.148;2022-07-29T05:50:19;16.30;99.90
6210;DHT22;3138;52.550;13.148;2022-07-29T05:52:46;16.40;99.90
6210;DHT22;3138;52.550;13.148;2022-07-29T05:55:14;16.50;99.90
6210;DHT22;3138;52.550;13.148;2022-07-29T05:57:41;16.70;99.90
6210;DHT22;3138;52.550;13.148;2022-07-29T06:00:11;16.90;99.90
6210;DHT22;3138;52.550;13.148;2022-07-29T06:02:38;17.20;99.90
6210;DHT22;3138;52.550;13.148;2022-07-29T06:05:06;17.20;99.90
6210;DHT22;3138;52.550;13.148;2022-07-29T06:07:33;17.10;99.90
6210;DHT22;3138;52.550;13.148;2022-07-29T06:10:00;17.30;99.90
6210;DHT22;3138;52.550;13.148;2022-07-29T06:12:28;17.30;99.90
6210;DHT22;3138;52.550;13.148;2022-07-29T06:14:55;17.20;99.90
6210;DHT22;3138;52.550;13.148;2022-07-29T06:17:22;17.10;99.90
6210;DHT22;3138;52.550;13.148;2022-07-29T06:19:49;17.00;99.90
6210;DHT22;3138;52.550;13.148;2022-07-29T06:22:15;17.00;99.90
6210;DHT22;3138;52.550;13.148;2022-07-29T06:24:42;17.10;99.90
6210;DHT22;3138;52.550;13.148;2022-07-29T06:27:09;17.20;99.90
6210;DHT22;3138;52.550;13.148;2022-07-29T06:29:37;17.30;99.90
6210;DHT22;3138;52.550;13.148;2022-07-29T06:32:05;17.30;99.90
6210;DHT22;3138;52.550;13.148;2022-07-29T06:34:32;17.50;99.90
6210;DHT22;3138;52.550;13.148;2022-07-29T06:36:59;17.50;99.20
6210;DHT22;3138;52.550;13.148;2022-07-29T06:39:25;17.60;99.50
6210;DHT22;3138;52.550;13.148;2022-07-29T06:41:53;17.50;98.60
6210;DHT22;3138;52.550;13.148;2022-07-29T06:44:20;17.50;98.80
6210;DHT22;3138;52.550;13.148;2022-07-29T06:46:48;17.70;98.50
6210;DHT22;3138;52.550;13.148;2022-07-29T06:49:16;18.00;99.70
6210;DHT22;3138;52.550;13.148;2022-07-29T06:51:43;18.20;97.80
6210;DHT22;3138;52.550;13.148;2022-07-29T06:54:10;18.30;98.30
6210;DHT22;3138;52.550;13.148;2022-07-29T06:56:37;18.50;97.50
6210;DHT22;3138;52.550;13.148;2022-07-29T06:59:07;18.60;97.00
6210;DHT22;3138;52.550;13.148;2022-07-29T07:01:35;18.60;96.60
6210;DHT22;3138;52.550;13.148;2022-07-29T07:04:03;18.70;96.60
6210;DHT22;3138;52.550;13.148;2022-07-29T07:06:30;18.80;96.40
6210;DHT22;3138;52.550;13.148;2022-07-29T07:08:57;18.80;95.30
6210;DHT22;3138;52.550;13.148;2022-07-29T07:11:24;19.00;95.50
6210;DHT22;3138;52.550;13.148;2022-07-29T07:13:50;19.20;94.60
6210;DHT22;3138;52.550;13.148;2022-07-29T07:16:17;19.40;94.80
6210;DHT22;3138;52.550;13.148;2022-07-29T07:18:44;19.30;93.90
6210;DHT22;3138;52.550;13.148;2022-07-29T07:21:12;19.50;94.70
6210;DHT22;3138;52.550;13.148;2022-07-29T07:23:39;19.40;92.70
6210;DHT22;3138;52.550;13.148;2022-07-29T07:26:06;19.60;92.60
6210;DHT22;3138;52.550;13.148;2022-07-29T07:28:33;19.80;92.60
6210;DHT22;3138;52.550;13.148;2022-07-29T07:30:59;19.90;91.50
6210;DHT22;3138;52.550;13.148;2022-07-29T07:33:26;19.90;91.20
6210;DHT22;3138;52.550;13.148;2022-07-29T07:35:53;20.00;90.70
6210;DHT22;3138;52.550;13.148;2022-07-29T07:38:21;20.20;91.40
6210;DHT22;3138;52.550;13.148;2022-07-29T07:40:48;20.20;90.90
6210;DHT22;3138;52.550;13.148;2022-07-29T07:43:15;20.00;90.50
6210;DHT22;3138;52.550;13.148;2022-07-29T07:45:42;20.10;89.80
6210;DHT22;3138;52.550;13.148;2022-07-29T07:48:08;20.50;90.70
6210;DHT22;3138;52.550;13.148;2022-07-29T07:50:36;20.70;88.50
6210;DHT22;3138;52.550;13.148;2022-07-29T07:53:03;20.70;88.80
6210;DHT22;3138;52.550;13.148;2022-07-29T07:55:31;20.80;87.70
6210;DHT22;3138;52.550;13.148;2022-07-29T07:57:58;20.90;87.20
6210;DHT22;3138;52.550;13.148;2022-07-29T08:00:25;20.90;87.70
6210;DHT22;3138;52.550;13.148;2022-07-29T08:02:52;21.30;91.40
6210;DHT22;3138;52.550;13.148;2022-07-29T08:05:18;21.40;86.80
6210;DHT22;3138;52.550;13.148;2022-07-29T08:07:46;21.40;83.70
6210;DHT22;3138;52.550;13.148;2022-07-29T08:10:13;21.60;81.10
6210;DHT22;3138;52.550;13.148;2022-07-29T08:12:41;22.20;83.50
6210;DHT22;3138;52.550;13.148;2022-07-29T08:15:08;22.70;83.10
6210;DHT22;3138;52.550;13.148;2022-07-29T08:17:35;22.90;78.80
6210;DHT22;3138;52.550;13.148;2022-07-29T08:20:03;22.90;74.70
6210;DHT22;3138;52.550;13.148;2022-07-29T08:22:30;23.40;81.00
6210;DHT22;3138;52.550;13.148;2022-07-29T08:24:56;23.10;75.30
6210;DHT22;3138;52.550;13.148;2022-07-29T08:27:23;23.20;76.20
6210;DHT22;3138;52.550;13.148;2022-07-29T08:29:53;23.20;72.00
6210;DHT22;3138;52.550;13.148;2022-07-29T08:32:21;23.40;72.00
6210;DHT22;3138;52.550;13.148;2022-07-29T08:34:47;23.50;72.90
6210;DHT22;3138;52.550;13.148;2022-07-29T08:37:14;23.80;68.60
6210;DHT22;3138;52.550;13.148;2022-07-29T08:39:41;23.70;65.00
6210;DHT22;3138;52.550;13.148;2022-07-29T08:42:08;23.60;65.90
6210;DHT22;3138;52.550;13.148;2022-07-29T08:44:35;23.80;64.00
6210;DHT22;3138;52.550;13.148;2022-07-29T08:47:04;24.20;62.10
6210;DHT22;3138;52.550;13.148;2022-07-29T08:49:33;24.60;60.70
6210;DHT22;3138;52.550;13.148;2022-07-29T08:52:01;25.20;59.20
6210;DHT22;3138;52.550;13.148;2022-07-29T08:54:28;25.00;57.50
6210;DHT22;3138;52.550;13.148;2022-07-29T08:56:55;25.00;59.50
6210;DHT22;3138;52.550;13.148;2022-07-29T08:59:25;25.40;58.40
6210;DHT22;3138;52.550;13.148;2022-07-29T09:01:54;25.30;54.40
6210;DHT22;3138;52.550;13.148;2022-07-29T09:04:24;25.50;55.80
6210;DHT22;3138;52.550;13.148;2022-07-29T09:06:54;25.80;54.80
6210;DHT22;3138;52.550;13.148;2022-07-29T09:09:23;25.60;52.20
6210;DHT22;3138;52.550;13.148;2022-07-29T09:11:50;25.90;55.80
6210;DHT22;3138;52.550;13.148;2022-07-29T09:14:18;25.80;51.90
6210;DHT22;3138;52.550;13.148;2022-07-29T09:16:47;25.70;53.00
6210;DHT22;3138;52.550;13.148;2022-07-29T09:19:24;25.30;52.80
6210;DHT22;3138;52.550;13.148;2022-07-29T09:21:52;25.10;52.80
6210;DHT22;3138;52.550;13.148;2022-07-29T09:24:25;25.20;50.70
6210;DHT22;3138;52.550;13.148;2022-07-29T09:26:52;25.20;52.30
6210;DHT22;3138;52.550;13.148;2022-07-29T09:29:20;25.60;50.20
6210;DHT22;3138;52.550;13.148;2022-07-29T09:31:50;25.50;50.00
6210;DHT22;3138;52.550;13.148;2022-07-29T09:34:25;25.30;50.20
6210;DHT22;3138;52.550;13.148;2022-07-29T09:36:54;25.40;50.30
6210;DHT22;3138;52.550;13.148;2022-07-29T09:39:30;25.20;48.70
6210;DHT22;3138;52.550;13.148;2022-07-29T09:41:59;25.00;48.30
6210;DHT22;3138;52.550;13.148;2022-07-29T09:44:26;25.20;47.50
6210;DHT22;3138;52.550;13.148;2022-07-29T09:46:57;25.50;47.50
6210;DHT22;3138;52.550;13.148;2022-07-29T09:49:26;26.00;48.90
6210;DHT22;3138;52.550;13.148;2022-07-29T09:52:08;26.30;48.20
6210;DHT22;3138;52.550;13.148;2022-07-29T09:54:36;26.80;48.50
6210;DHT22;3138;52.550;13.148;2022-07-29T09:57:05;26.80;45.10
6210;DHT22;3138;52.550;13.148;2022-07-29T09:59:32;26.80;46.30
6210;DHT22;3138;52.550;13.148;2022-07-29T10:01:59;26.80;44.70
6210;DHT22;3138;52.550;13.148;2022-07-29T10:04:41;27.00;43.70
6210;DHT22;3138;52.550;13.148;2022-07-29T10:07:08;26.90;44.90
6210;DHT22;3138;52.550;13.148;2022-07-29T10:09:35;26.40;42.40
6210;DHT22;3138;52.550;13.148;2022-07-29T10:12:07;26.10;43.60
6210;DHT22;3138;52.550;13.148;2022-07-29T10:14:35;26.80;44.40
6210;DHT22;3138;52.550;13.148;2022-07-29T10:17:03;26.80;42.60
6210;DHT22;3138;52.550;13.148;2022-07-29T10:19:31;26.70;41.20
6210;DHT22;3138;52.550;13.148;2022-07-29T10:22:01;26.20;40.90
6210;DHT22;3138;52.550;13.148;2022-07-29T10:24:29;25.60;40.10
6210;DHT22;3138;52.550;13.148;2022-07-29T10:26:58;25.60;41.00
6210;DHT22;3138;52.550;13.148;2022-07-29T10:29:25;25.80;41.20
6210;DHT22;3138;52.550;13.148;2022-07-29T10:32:00;25.60;40.00
6210;DHT22;3138;52.550;13.148;2022-07-29T10:34:46;25.50;40.90
6210;DHT22;3138;52.550;13.148;2022-07-29T10:37:26;25.40;40.80
6210;DHT22;3138;52.550;13.148;2022-07-29T10:40:03;25.80;42.50
6210;DHT22;3138;52.550;13.148;2022-07-29T10:42:53;25.80;42.50
6210;DHT22;3138;52.550;13.148;2022-07-29T10:45:23;25.80;41.10
6210;DHT22;3138;52.550;13.148;2022-07-29T10:48:03;25.90;40.60
6210;DHT22;3138;52.550;13.148;2022-07-29T10:50:52;26.10;42.30
6210;DHT22;3138;52.550;13.148;2022-07-29T10:53:21;26.20;40.70
6210;DHT22;3138;52.550;13.148;2022-07-29T10:55:49;26.60;41.60
6210;DHT22;3138;52.550;13.148;2022-07-29T10:58:18;27.10;41.20
6210;DHT22;3138;52.550;13.148;2022-07-29T11:00:46;27.20;40.00
6210;DHT22;3138;52.550;13.148;2022-07-29T11:03:43;26.90;39.20
6210;DHT22;3138;52.550;13.148;2022-07-29T11:06:19;26.70;38.80
6210;DHT22;3138;52.550;13.148;2022-07-29T11:12:01;26.30;39.80
6210;DHT22;3138;52.550;13.148;2022-07-29T11:14:57;26.30;38.70
6210;DHT22;3138;52.550;13.148;2022-07-29T11:17:27;26.60;39.00
6210;DHT22;3138;52.550;13.148;2022-07-29T11:20:31;26.80;38.80
6210;DHT22;3138;52.550;13.148;2022-07-29T11:22:58;27.20;40.10
6210;DHT22;3138;52.550;13.148;2022-07-29T11:25:26;27.50;40.90
6210;DHT22;3138;52.550;13.148;2022-07-29T11:28:09;27.70;38.20
6210;DHT22;3138;52.550;13.148;2022-07-29T11:30:51;27.30;38.80
6210;DHT22;3138;52.550;13.148;2022-07-29T11:33:28;27.40;39.20
6210;DHT22;3138;52.550;13.148;2022-07-29T11:36:10;27.60;38.30
6210;DHT22;3138;52.550;13.148;2022-07-29T11:38:38;27.40;37.70
6210;DHT22;3138;52.550;13.148;2022-07-29T11:41:24;27.20;36.70
6210;DHT22;3138;52.550;13.148;2022-07-29T11:43:55;27.30;37.10
6210;DHT22;3138;52.550;13.148;2022-07-29T11:46:43;27.00;37.40
6210;DHT22;3138;52.550;13.148;2022-07-29T11:49:10;26.80;37.80
6210;DHT22;3138;52.550;13.148;2022-07-29T11:51:38;27.10;37.60
6210;DHT22;3138;52.550;13.148;2022-07-29T11:54:09;27.10;38.10
6210;DHT22;3138;52.550;13.148;2022-07-29T11:56:40;27.70;39.80
6210;DHT22;3138;52.550;13.148;2022-07-29T11:59:10;28.50;40.70
6210;DHT22;3138;52.550;13.148;2022-07-29T12:01:51;29.10;39.40
6210;DHT22;3138;52.550;13.148;2022-07-29T12:04:18;28.60;37.80
6210;DHT22;3138;52.550;13.148;2022-07-29T12:06:49;28.50;38.30
6210;DHT22;3138;52.550;13.148;2022-07-29T12:09:17;28.60;39.80
6210;DHT22;3138;52.550;13.148;2022-07-29T12:11:44;28.20;37.50
6210;DHT22;3138;52.550;13.148;2022-07-29T12:14:26;28.80;40.40
6210;DHT22;3138;52.550;13.148;2022-07-29T12:16:52;28.90;36.60
6210;DHT22;3138;52.550;13.148;2022-07-29T12:19:19;28.50;38.50
6210;DHT22;3138;52.550;13.148;2022-07-29T12:21:47;28.40;40.40
6210;DHT22;3138;52.550;13.148;2022-07-29T12:24:14;28.60;36.00
6210;DHT22;3138;52.550;13.148;2022-07-29T12:26:49;29.10;36.50
6210;DHT22;3138;52.550;13.148;2022-07-29T12:29:16;28.60;37.30
6210;DHT22;3138;52.550;13.148;2022-07-29T12:31:45;28.50;37.30
6210;DHT22;3138;52.550;13.148;2022-07-29T12:34:13;28.30;38.40
6210;DHT22;3138;52.550;13.148;2022-07-29T12:36:41;28.40;39.60
6210;DHT22;3138;52.550;13.148;2022-07-29T12:39:08;28.40;37.60
6210;DHT22;3138;52.550;13.148;2022-07-29T12:41:36;28.60;37.60
6210;DHT22;3138;52.550;13.148;2022-07-29T12:44:04;28.50;37.50
6210;DHT22;3138;52.550;13.148;2022-07-29T12:46:31;28.10;37.70
6210;DHT22;3138;52.550;13.148;2022-07-29T12:48:59;28.20;39.20
6210;DHT22;3138;52.550;13.148;2022-07-29T12:51:29;28.30;39.20
6210;DHT22;3138;52.550;13.148;2022-07-29T12:54:04;28.30;39.90
6210;DHT22;3138;52.550;13.148;2022-07-29T12:56:32;28.50;40.40
6210;DHT22;3138;52.550;13.148;2022-07-29T12:58:59;28.40;40.00
6210;DHT22;3138;52.550;13.148;2022-07-29T13:01:37;28.20;39.20
6210;DHT22;3138;52.550;13.148;2022-07-29T13:04:05;28.10;39.60
6210;DHT22;3138;52.550;13.148;2022-07-29T13:06:37;28.00;39.50
6210;DHT22;3138;52.550;13.148;2022-07-29T13:09:07;28.50;40.30
6210;DHT22;3138;52.550;13.148;2022-07-29T13:11:35;28.20;39.20
6210;DHT22;3138;52.550;13.148;2022-07-29T13:14:03;28.60;39.80
6210;DHT22;3138;52.550;13.148;2022-07-29T13:16:29;28.40;39.20
6210;DHT22;3138;52.550;13.148;2022-07-29T13:19:08;28.20;38.90
6210;DHT22;3138;52.550;13.148;2022-07-29T13:21:36;28.50;39.00
6210;DHT22;3138;52.550;13.148;2022-07-29T13:24:04;28.90;39.50
6210;DHT22;3138;52.550;13.148;2022-07-29T13:26:31;28.70;39.20
6210;DHT22;3138;52.550;13.148;2022-07-29T13:28:58;28.70;39.00
6210;DHT22;3138;52.550;13.148;2022-07-29T13:31:25;28.60;39.20
6210;DHT22;3138;52.550;13.148;2022-07-29T13:33:52;28.50;38.60
6210;DHT22;3138;52.550;13.148;2022-07-29T13:36:20;29.00;41.80
6210;DHT22;3138;52.550;13.148;2022-07-29T13:38:47;28.90;40.70
6210;DHT22;3138;52.550;13.148;2022-07-29T13:41:14;29.50;41.50
6210;DHT22;3138;52.550;13.148;2022-07-29T13:43:40;29.20;39.70
6210;DHT22;3138;52.550;13.148;2022-07-29T13:46:07;28.30;38.80
6210;DHT22;3138;52.550;13.148;2022-07-29T13:48:34;27.90;40.10
6210;DHT22;3138;52.550;13.148;2022-07-29T13:51:01;28.20;39.80
6210;DHT22;3138;52.550;13.148;2022-07-29T13:53:29;28.60;39.60
6210;DHT22;3138;52.550;13.148;2022-07-29T13:55:56;28.30;39.10
6210;DHT22;3138;52.550;13.148;2022-07-29T13:58:22;28.60;38.90
6210;DHT22;3138;52.550;13.148;2022-07-29T14:00:49;28.60;38.90
6210;DHT22;3138;52.550;13.148;2022-07-29T14:03:16;28.60;40.30
6210;DHT22;3138;52.550;13.148;2022-07-29T14:05:43;28.80;40.40
6210;DHT22;3138;52.550;13.148;2022-07-29T14:08:10;28.90;39.40
6210;DHT22;3138;52.550;13.148;2022-07-29T14:10:38;29.20;39.80
6210;DHT22;3138;52.550;13.148;2022-07-29T14:13:05;29.30;40.10
6210;DHT22;3138;52.550;13.148;2022-07-29T14:15:32;28.70;39.20
6210;DHT22;3138;52.550;13.148;2022-07-29T14:17:58;28.30;39.30
6210;DHT22;3138;52.550;13.148;2022-07-29T14:20:25;28.30;39.30
6210;DHT22;3138;52.550;13.148;2022-07-29T14:22:53;28.80;40.00
6210;DHT22;3138;52.550;13.148;2022-07-29T14:25:20;29.20;40.90
6210;DHT22;3138;52.550;13.148;2022-07-29T14:27:48;29.30;41.10
6210;DHT22;3138;52.550;13.148;2022-07-29T14:30:15;29.00;40.80
6210;DHT22;3138;52.550;13.148;2022-07-29T14:32:42;28.80;39.60
6210;DHT22;3138;52.550;13.148;2022-07-29T14:35:09;28.90;40.70
6210;DHT22;3138;52.550;13.148;2022-07-29T14:37:36;29.00;39.70
6210;DHT22;3138;52.550;13.148;2022-07-29T14:40:03;29.10;40.90
6210;DHT22;3138;52.550;13.148;2022-07-29T14:42:30;29.00;38.20
6210;DHT22;3138;52.550;13.148;2022-07-29T14:44:58;29.20;39.60
6210;DHT22;3138;52.550;13.148;2022-07-29T14:47:25;28.90;37.60
6210;DHT22;3138;52.550;13.148;2022-07-29T14:49:52;28.90;38.00
6210;DHT22;3138;52.550;13.148;2022-07-29T14:52:19;28.80;38.80
6210;DHT22;3138;52.550;13.148;2022-07-29T14:54:45;28.90;38.10
6210;DHT22;3138;52.550;13.148;2022-07-29T14:57:12;28.90;39.40
6210;DHT22;3138;52.550;13.148;2022-07-29T14:59:39;28.70;37.40
6210;DHT22;3138;52.550;13.148;2022-07-29T15:02:07;28.80;37.60
6210;DHT22;3138;52.550;13.148;2022-07-29T15:04:34;28.60;37.20
6210;DHT22;3138;52.550;13.148;2022-07-29T15:07:01;28.70;37.00
6210;DHT22;3138;52.550;13.148;2022-07-29T15:09:28;28.90;37.00
6210;DHT22;3138;52.550;13.148;2022-07-29T15:11:55;28.90;37.40
6210;DHT22;3138;52.550;13.148;2022-07-29T15:14:21;29.20;37.30
6210;DHT22;3138;52.550;13.148;2022-07-29T15:16:48;28.60;38.10
6210;DHT22;3138;52.550;13.148;2022-07-29T15:19:16;28.20;37.20
6210;DHT22;3138;52.550;13.148;2022-07-29T15:21:43;28.00;38.50
6210;DHT22;3138;52.550;13.148;2022-07-29T15:24:10;27.90;38.00
6210;DHT22;3138;52.550;13.148;2022-07-29T15:26:37;28.00;38.80
6210;DHT22;3138;52.550;13.148;2022-07-29T15:29:04;28.30;36.60
6210;DHT22;3138;52.550;13.148;2022-07-29T15:31:30;28.50;36.80
6210;DHT22;3138;52.550;13.148;2022-07-29T15:33:57;28.90;37.40
6210;DHT22;3138;52.550;13.148;2022-07-29T15:36:25;28.80;34.80
6210;DHT22;3138;52.550;13.148;2022-07-29T15:38:52;28.80;36.50
6210;DHT22;3138;52.550;13.148;2022-07-29T15:41:20;28.80;37.40
6210;DHT22;3138;52.550;13.148;2022-07-29T15:43:47;28.60;38.00
6210;DHT22;3138;52.550;13.148;2022-07-29T15:46:16;28.50;38.10
6210;DHT22;3138;52.550;13.148;2022-07-29T15:49:02;28.00;37.30
6210;DHT22;3138;52.550;13.148;2022-07-29T15:51:30;27.50;37.10
6210;DHT22;3138;52.550;13.148;2022-07-29T15:53:57;27.40;38.40
6210;DHT22;3138;52.550;13.148;2022-07-29T15:56:24;27.20;38.70
6210;DHT22;3138;52.550;13.148;2022-07-29T15:58:50;27.20;39.30